sensor_id;sensor_type;location;lat;lon;timestamp;pressure;altitude;pressure_sealevel;temperature;humidity
77027;BME280;65956;52.986;17.490;2023-07-28T00:02:19;99310.31;;;15.86;73.24
77027;BME280;65956;52.986;17.490;2023-07-28T00:04:45;99305.58;;;15.86;73.33
77027;BME280;65956;52.986;17.490;2023-07-28T00:07:11;99304.73;;;15.84;73.49
77027;BME280;65956;52.986;17.490;2023-07-28T00:09:37;99295.05;;;15.83;73.45
77027;BME280;65956;52.986;17.490;2023-07-28T00:12:03;99291.45;;;15.83;74.14
77027;BME280;65956;52.986;17.490;2023-07-28T00:14:29;99293.94;;;15.82;73.60
77027;BME280;65956;52.986;17.490;2023-07-28T00:16:56;99293.11;;;15.83;73.48
77027;BME280;65956;52.986;17.490;2023-07-28T00:19:22;99291.83;;;15.83;73.79
77027;BME280;65956;52.986;17.490;2023-07-28T00:21:49;99290.58;;;15.82;74.01
77027;BME280;65956;52.986;17.490;2023-07-28T00:24:17;99288.27;;;15.81;74.11
77027;BME280;65956;52.986;17.490;2023-07-28T00:26:43;99288.35;;;15.80;74.12
77027;BME280;65956;52.986;17.490;2023-07-28T00:29:11;99292.27;;;15.81;74.32
77027;BME280;65956;52.986;17.490;2023-07-28T00:31:37;99290.20;;;15.80;74.65
77027;BME280;65956;52.986;17.490;2023-07-28T00:34:03;99286.34;;;15.78;75.26
77027;BME280;65956;52.986;17.490;2023-07-28T00:36:30;99284.70;;;15.75;75.40
77027;BME280;65956;52.986;17.490;2023-07-28T00:38:57;99283.06;;;15.72;75.63
77027;BME280;65956;52.986;17.490;2023-07-28T00:41:23;99278.02;;;15.71;75.69
77027;BME280;65956;52.986;17.490;2023-07-28T00:43:49;99281.16;;;15.71;75.65
77027;BME280;65956;52.986;17.490;2023-07-28T00:46:16;99272.56;;;15.72;75.67
77027;BME280;65956;52.986;17.490;2023-07-28T00:48:43;99270.16;;;15.68;76.98
77027;BME280;65956;52.986;17.490;2023-07-28T00:51:09;99266.38;;;15.64;76.75
77027;BME280;65956;52.986;17.490;2023-07-28T00:53:36;99262.67;;;15.61;77.94
77027;BME280;65956;52.986;17.490;2023-07-28T00:56:04;99258.51;;;15.53;78.79
77027;BME280;65956;52.986;17.490;2023-07-28T00:58:31;99251.77;;;15.47;78.74
77027;BME280;65956;52.986;17.490;2023-07-28T01:00:57;99252.10;;;15.43;78.76
77027;BME280;65956;52.986;17.490;2023-07-28T01:03:24;99250.19;;;15.38;79.37
77027;BME280;65956;52.986;17.490;2023-07-28T01:06:10;99251.36;;;15.35;79.01
77027;BME280;65956;52.986;17.490;2023-07-28T01:08:58;99247.81;;;15.32;79.20
77027;BME280;65956;52.986;17.490;2023-07-28T01:11:29;99243.14;;;15.28;79.92
77027;BME280;65956;52.986;17.490;2023-07-28T01:13:55;99242.73;;;15.25;80.28
77027;BME280;65956;52.986;17.490;2023-07-28T01:16:21;99241.20;;;15.22;80.28
77027;BME280;65956;52.986;17.490;2023-07-28T01:18:47;99239.81;;;15.23;80.03
77027;BME280;65956;52.986;17.490;2023-07-28T01:21:26;99232.39;;;15.21;80.47
77027;BME280;65956;52.986;17.490;2023-07-28T01:24:21;99228.41;;;15.19;80.35
77027;BME280;65956;52.986;17.490;2023-07-28T01:26:54;99221.58;;;15.15;81.08
77027;BME280;65956;52.986;17.490;2023-07-28T01:29:21;99222.81;;;15.14;80.95
77027;BME280;65956;52.986;17.490;2023-07-28T01:31:48;99212.69;;;15.12;80.90
77027;BME280;65956;52.986;17.490;2023-07-28T01:34:14;99208.91;;;15.11;80.59
77027;BME280;65956;52.986;17.490;2023-07-28T01:36:40;99208.79;;;15.10;80.86
77027;BME280;65956;52.986;17.490;2023-07-28T01:39:06;99208.19;;;15.08;81.04
77027;BME280;65956;52.986;17.490;2023-07-28T01:41:32;99205.00;;;15.07;80.93
77027;BME280;65956;52.986;17.490;2023-07-28T01:43:58;99202.25;;;15.04;81.35
77027;BME280;65956;52.986;17.490;2023-07-28T01:46:24;99190.85;;;15.00;81.57
77027;BME280;65956;52.986;17.490;2023-07-28T01:48:50;99188.89;;;14.99;81.36
77027;BME280;65956;52.986;17.490;2023-07-28T01:51:16;99184.50;;;14.98;81.29
77027;BME280;65956;52.986;17.490;2023-07-28T01:53:42;99182.14;;;14.96;81.84
77027;BME280;65956;52.986;17.490;2023-07-28T01:56:08;99181.13;;;14.97;81.04
77027;BME280;65956;52.986;17.490;2023-07-28T01:58:34;99174.19;;;15.00;80.76
77027;BME280;65956;52.986;17.490;2023-07-28T02:01:00;99170.28;;;15.03;80.59
77027;BME280;65956;52.986;17.490;2023-07-28T02:03:26;99168.26;;;15.05;80.58
77027;BME280;65956;52.986;17.490;2023-07-28T02:05:52;99170.53;;;15.07;80.60
77027;BME280;65956;52.986;17.490;2023-07-28T02:08:18;99166.51;;;15.08;80.47
77027;BME280;65956;52.986;17.490;2023-07-28T02:10:44;99171.23;;;15.09;80.48
77027;BME280;65956;52.986;17.490;2023-07-28T02:13:10;99171.08;;;15.11;80.30
77027;BME280;65956;52.986;17.490;2023-07-28T02:15:37;99171.15;;;15.12;80.62
77027;BME280;65956;52.986;17.490;2023-07-28T02:18:03;99172.20;;;15.12;80.25
77027;BME280;65956;52.986;17.490;2023-07-28T02:20:30;99166.91;;;15.15;80.20
77027;BME280;65956;52.986;17.490;2023-07-28T02:22:56;99166.73;;;15.17;80.35
77027;BME280;65956;52.986;17.490;2023-07-28T02:25:22;99162.85;;;15.18;80.38
77027;BME280;65956;52.986;17.490;2023-07-28T02:27:48;99165.16;;;15.19;80.44
77027;BME280;65956;52.986;17.490;2023-07-28T02:30:14;99161.21;;;15.19;80.38
77027;BME280;65956;52.986;17.490;2023-07-28T02:32:40;99164.34;;;15.19;80.29
77027;BME280;65956;52.986;17.490;2023-07-28T02:35:06;99162.40;;;15.20;80.15
77027;BME280;65956;52.986;17.490;2023-07-28T02:37:32;99158.45;;;15.22;80.13
77027;BME280;65956;52.986;17.490;2023-07-28T02:39:58;99156.26;;;15.23;80.00
77027;BME280;65956;52.986;17.490;2023-07-28T02:42:24;99154.92;;;15.25;80.04
77027;BME280;65956;52.986;17.490;2023-07-28T02:44:51;99153.08;;;15.26;79.94
77027;BME280;65956;52.986;17.490;2023-07-28T02:47:16;99150.83;;;15.25;80.07
77027;BME280;65956;52.986;17.490;2023-07-28T02:49:43;99150.98;;;15.25;79.90
77027;BME280;65956;52.986;17.490;2023-07-28T02:52:10;99149.38;;;15.26;79.96
77027;BME280;65956;52.986;17.490;2023-07-28T02:54:36;99144.02;;;15.26;80.04
77027;BME280;65956;52.986;17.490;2023-07-28T02:57:02;99145.92;;;15.26;79.96
77027;BME280;65956;52.986;17.490;2023-07-28T02:59:29;99143.25;;;15.27;79.90
77027;BME280;65956;52.986;17.490;2023-07-28T03:01:55;99141.25;;;15.27;79.92
77027;BME280;65956;52.986;17.490;2023-07-28T03:04:23;99143.09;;;15.27;79.84
77027;BME280;65956;52.986;17.490;2023-07-28T03:07:09;99137.53;;;15.28;79.92
77027;BME280;65956;52.986;17.490;2023-07-28T03:09:36;99136.89;;;15.28;79.96
77027;BME280;65956;52.986;17.490;2023-07-28T03:12:02;99132.39;;;15.29;80.08
77027;BME280;65956;52.986;17.490;2023-07-28T03:14:28;99135.52;;;15.29;80.19
77027;BME280;65956;52.986;17.490;2023-07-28T03:16:55;99130.98;;;15.27;80.39
77027;BME280;65956;52.986;17.490;2023-07-28T03:19:21;99132.42;;;15.27;80.58
77027;BME280;65956;52.986;17.490;2023-07-28T03:21:47;99135.74;;;15.26;80.77
77027;BME280;65956;52.986;17.490;2023-07-28T03:24:13;99138.68;;;15.23;81.06
77027;BME280;65956;52.986;17.490;2023-07-28T03:26:39;99139.55;;;15.20;81.16
77027;BME280;65956;52.986;17.490;2023-07-28T03:29:05;99141.17;;;15.19;81.37
77027;BME280;65956;52.986;17.490;2023-07-28T03:31:31;99132.66;;;15.16;81.82
77027;BME280;65956;52.986;17.490;2023-07-28T03:34:02;99129.82;;;15.14;82.05
77027;BME280;65956;52.986;17.490;2023-07-28T03:36:28;99128.26;;;15.12;82.27
77027;BME280;65956;52.986;17.490;2023-07-28T03:38:55;99125.08;;;15.10;82.46
77027;BME280;65956;52.986;17.490;2023-07-28T03:41:21;99125.21;;;15.08;83.13
77027;BME280;65956;52.986;17.490;2023-07-28T03:43:47;99125.52;;;15.05;83.23
77027;BME280;65956;52.986;17.490;2023-07-28T03:46:13;99124.60;;;15.03;83.55
77027;BME280;65956;52.986;17.490;2023-07-28T03:48:39;99122.66;;;15.00;83.86
77027;BME280;65956;52.986;17.490;2023-07-28T03:51:05;99122.09;;;14.96;84.46
77027;BME280;65956;52.986;17.490;2023-07-28T03:53:31;99121.02;;;14.93;84.26
77027;BME280;65956;52.986;17.490;2023-07-28T03:55:57;99119.69;;;14.92;85.09
77027;BME280;65956;52.986;17.490;2023-07-28T03:58:27;99121.48;;;14.90;84.85
77027;BME280;65956;52.986;17.490;2023-07-28T04:00:53;99118.82;;;14.91;84.81
77027;BME280;65956;52.986;17.490;2023-07-28T04:03:19;99114.89;;;14.92;84.98
77027;BME280;65956;52.986;17.490;2023-07-28T04:05:46;99113.90;;;14.92;85.41
77027;BME280;65956;52.986;17.490;2023-07-28T04:08:12;99112.64;;;14.91;85.64
77027;BME280;65956;52.986;17.490;2023-07-28T04:10:38;99109.08;;;14.89;86.15
77027;BME280;65956;52.986;17.490;2023-07-28T04:13:03;99104.30;;;14.87;86.38
77027;BME280;65956;52.986;17.490;2023-07-28T04:15:29;99097.16;;;14.83;86.91
77027;BME280;65956;52.986;17.490;2023-07-28T04:17:55;99091.02;;;14.86;86.57
77027;BME280;65956;52.986;17.490;2023-07-28T04:20:21;99087.79;;;14.87;86.59
77027;BME280;65956;52.986;17.490;2023-07-28T04:22:47;99086.09;;;14.88;86.58
77027;BME280;65956;52.986;17.490;2023-07-28T04:25:13;99085.18;;;14.89;86.35
77027;BME280;65956;52.986;17.490;2023-07-28T04:27:43;99088.66;;;14.92;86.48
77027;BME280;65956;52.986;17.490;2023-07-28T04:30:09;99086.84;;;14.91;86.50
77027;BME280;65956;52.986;17.490;2023-07-28T04:32:35;99087.21;;;14.92;86.68
77027;BME280;65956;52.986;17.490;2023-07-28T04:35:08;99081.71;;;14.91;86.78
77027;BME280;65956;52.986;17.490;2023-07-28T04:37:53;99080.92;;;14.94;86.85
77027;BME280;65956;52.986;17.490;2023-07-28T04:40:31;99077.38;;;14.95;87.10
77027;BME280;65956;52.986;17.490;2023-07-28T04:42:57;99076.65;;;14.96;87.12
77027;BME280;65956;52.986;17.490;2023-07-28T04:45:23;99078.85;;;14.97;87.17
77027;BME280;65956;52.986;17.490;2023-07-28T04:47:49;99069.60;;;14.96;87.22
77027;BME280;65956;52.986;17.490;2023-07-28T04:50:15;99065.67;;;14.96;87.10
77027;BME280;65956;52.986;17.490;2023-07-28T04:52:47;99063.14;;;14.97;87.15
77027;BME280;65956;52.986;17.490;2023-07-28T04:55:35;99063.70;;;14.97;87.25
77027;BME280;65956;52.986;17.490;2023-07-28T04:58:01;99062.44;;;14.96;87.54
77027;BME280;65956;52.986;17.490;2023-07-28T05:00:32;99064.10;;;14.97;87.54
77027;BME280;65956;52.986;17.490;2023-07-28T05:02:58;99062.59;;;14.97;87.64
77027;BME280;65956;52.986;17.490;2023-07-28T05:05:25;99058.34;;;14.97;87.66
77027;BME280;65956;52.986;17.490;2023-07-28T05:07:51;99057.41;;;15.00;87.79
77027;BME280;65956;52.986;17.490;2023-07-28T05:10:17;99052.13;;;14.99;87.87
77027;BME280;65956;52.986;17.490;2023-07-28T05:12:43;99054.44;;;15.00;87.74
77027;BME280;65956;52.986;17.490;2023-07-28T05:15:09;99050.18;;;15.00;88.10
77027;BME280;65956;52.986;17.490;2023-07-28T05:17:37;99051.98;;;14.98;88.33
77027;BME280;65956;52.986;17.490;2023-07-28T05:20:16;99051.83;;;14.98;88.38
77027;BME280;65956;52.986;17.490;2023-07-28T05:22:49;99052.87;;;14.98;88.52
77027;BME280;65956;52.986;17.490;2023-07-28T05:25:15;99055.42;;;14.96;88.71
77027;BME280;65956;52.986;17.490;2023-07-28T05:27:42;99054.48;;;14.94;88.63
77027;BME280;65956;52.986;17.490;2023-07-28T05:30:09;99055.03;;;14.94;88.76
77027;BME280;65956;52.986;17.490;2023-07-28T05:32:35;99052.70;;;14.94;89.02
77027;BME280;65956;52.986;17.490;2023-07-28T05:35:17;99042.28;;;14.98;89.25
77027;BME280;65956;52.986;17.490;2023-07-28T05:37:43;99045.76;;;15.01;89.28
77027;BME280;65956;52.986;17.490;2023-07-28T05:40:10;99039.45;;;15.04;89.21
77027;BME280;65956;52.986;17.490;2023-07-28T05:42:36;99042.25;;;15.08;89.16
77027;BME280;65956;52.986;17.490;2023-07-28T05:45:02;99041.34;;;15.09;89.03
77027;BME280;65956;52.986;17.490;2023-07-28T05:47:29;99047.61;;;15.13;89.05
77027;BME280;65956;52.986;17.490;2023-07-28T05:49:55;99051.40;;;15.14;89.31
77027;BME280;65956;52.986;17.490;2023-07-28T05:52:22;99048.60;;;15.14;89.34
77027;BME280;65956;52.986;17.490;2023-07-28T05:54:51;99051.77;;;15.15;89.44
77027;BME280;65956;52.986;17.490;2023-07-28T05:57:17;99048.29;;;15.18;89.38
77027;BME280;65956;52.986;17.490;2023-07-28T05:59:43;99046.41;;;15.22;89.60
77027;BME280;65956;52.986;17.490;2023-07-28T06:02:09;99042.59;;;15.24;89.70
77027;BME280;65956;52.986;17.490;2023-07-28T06:04:44;99039.76;;;15.29;89.76
77027;BME280;65956;52.986;17.490;2023-07-28T06:07:10;99036.90;;;15.35;89.85
77027;BME280;65956;52.986;17.490;2023-07-28T06:09:37;99032.14;;;15.44;89.96
77027;BME280;65956;52.986;17.490;2023-07-28T06:12:03;99027.66;;;15.51;89.68
77027;BME280;65956;52.986;17.490;2023-07-28T06:14:29;99024.92;;;15.58;89.43
77027;BME280;65956;52.986;17.490;2023-07-28T06:16:56;99025.55;;;15.69;89.35
77027;BME280;65956;52.986;17.490;2023-07-28T06:19:25;99021.77;;;15.76;89.27
77027;BME280;65956;52.986;17.490;2023-07-28T06:21:52;99021.30;;;15.82;89.25
77027;BME280;65956;52.986;17.490;2023-07-28T06:24:19;99023.76;;;15.90;89.17
77027;BME280;65956;52.986;17.490;2023-07-28T06:26:46;99025.79;;;16.01;88.98
77027;BME280;65956;52.986;17.490;2023-07-28T06:29:12;99033.25;;;16.11;88.75
77027;BME280;65956;52.986;17.490;2023-07-28T06:31:38;99037.64;;;16.14;88.78
77027;BME280;65956;52.986;17.490;2023-07-28T06:34:04;99040.55;;;16.13;88.76
77027;BME280;65956;52.986;17.490;2023-07-28T06:36:30;99033.48;;;16.11;88.82
77027;BME280;65956;52.986;17.490;2023-07-28T06:38:56;99035.70;;;16.09;88.85
77027;BME280;65956;52.986;17.490;2023-07-28T06:41:22;99041.29;;;16.04;89.33
77027;BME280;65956;52.986;17.490;2023-07-28T06:43:54;99041.23;;;16.03;89.19
77027;BME280;65956;52.986;17.490;2023-07-28T06:46:20;99038.98;;;16.06;89.06
77027;BME280;65956;52.986;17.490;2023-07-28T06:48:46;99035.19;;;16.10;89.00
77027;BME280;65956;52.986;17.490;2023-07-28T06:51:15;99034.65;;;16.16;88.80
77027;BME280;65956;52.986;17.490;2023-07-28T06:53:41;99029.12;;;16.24;88.74
77027;BME280;65956;52.986;17.490;2023-07-28T06:56:07;99025.70;;;16.35;88.87
77027;BME280;65956;52.986;17.490;2023-07-28T06:58:33;99029.13;;;16.45;88.56
77027;BME280;65956;52.986;17.490;2023-07-28T07:00:59;99031.80;;;16.53;88.64
77027;BME280;65956;52.986;17.490;2023-07-28T07:03:25;99033.48;;;16.56;88.52
77027;BME280;65956;52.986;17.490;2023-07-28T07:05:52;99039.47;;;16.58;88.42
77027;BME280;65956;52.986;17.490;2023-07-28T07:08:18;99046.02;;;16.56;88.52
77027;BME280;65956;52.986;17.490;2023-07-28T07:10:48;99041.42;;;16.51;89.11
77027;BME280;65956;52.986;17.490;2023-07-28T07:13:16;99037.09;;;16.48;89.32
77027;BME280;65956;52.986;17.490;2023-07-28T07:15:42;99036.20;;;16.48;89.45
77027;BME280;65956;52.986;17.490;2023-07-28T07:18:08;99041.12;;;16.47;89.76
77027;BME280;65956;52.986;17.490;2023-07-28T07:20:35;99033.45;;;16.48;89.64
77027;BME280;65956;52.986;17.490;2023-07-28T07:23:02;99036.05;;;16.57;89.72
77027;BME280;65956;52.986;17.490;2023-07-28T07:25:27;99032.20;;;16.74;89.46
77027;BME280;65956;52.986;17.490;2023-07-28T07:27:53;99033.25;;;16.91;89.25
77027;BME280;65956;52.986;17.490;2023-07-28T07:30:19;99025.78;;;17.01;88.97
77027;BME280;65956;52.986;17.490;2023-07-28T07:32:48;99023.73;;;17.11;88.62
77027;BME280;65956;52.986;17.490;2023-07-28T07:35:14;99021.86;;;17.16;88.40
77027;BME280;65956;52.986;17.490;2023-07-28T07:37:40;99021.37;;;17.17;88.31
77027;BME280;65956;52.986;17.490;2023-07-28T07:40:07;99026.70;;;17.13;88.28
77027;BME280;65956;52.986;17.490;2023-07-28T07:42:46;99029.43;;;17.08;88.69
77027;BME280;65956;52.986;17.490;2023-07-28T07:45:13;99030.86;;;17.01;88.98
77027;BME280;65956;52.986;17.490;2023-07-28T07:47:40;99034.79;;;16.98;89.21
77027;BME280;65956;52.986;17.490;2023-07-28T07:50:07;99031.64;;;17.01;89.10
77027;BME280;65956;52.986;17.490;2023-07-28T07:52:37;99035.21;;;17.16;88.96
77027;BME280;65956;52.986;17.490;2023-07-28T07:55:04;99030.81;;;17.29;88.84
77027;BME280;65956;52.986;17.490;2023-07-28T07:57:30;99026.75;;;17.43;88.57
77027;BME280;65956;52.986;17.490;2023-07-28T07:59:57;99025.61;;;17.54;88.32
77027;BME280;65956;52.986;17.490;2023-07-28T08:02:24;99024.03;;;17.64;88.39
77027;BME280;65956;52.986;17.490;2023-07-28T08:04:53;99023.63;;;17.73;88.14
77027;BME280;65956;52.986;17.490;2023-07-28T08:07:20;99021.30;;;17.80;87.90
77027;BME280;65956;52.986;17.490;2023-07-28T08:09:46;99022.69;;;17.78;87.46
77027;BME280;65956;52.986;17.490;2023-07-28T08:12:13;99026.38;;;17.78;87.87
77027;BME280;65956;52.986;17.490;2023-07-28T08:14:40;99027.04;;;17.92;87.66
77027;BME280;65956;52.986;17.490;2023-07-28T08:17:06;99025.63;;;18.03;87.27
77027;BME280;65956;52.986;17.490;2023-07-28T08:19:33;99024.04;;;18.02;87.20
77027;BME280;65956;52.986;17.490;2023-07-28T08:21:58;99028.57;;;17.99;87.76
77027;BME280;65956;52.986;17.490;2023-07-28T08:24:24;99027.74;;;17.93;88.13
77027;BME280;65956;52.986;17.490;2023-07-28T08:26:50;99029.86;;;17.84;88.57
77027;BME280;65956;52.986;17.490;2023-07-28T08:29:16;99030.77;;;17.84;89.26
77027;BME280;65956;52.986;17.490;2023-07-28T08:31:42;99030.40;;;17.83;89.56
77027;BME280;65956;52.986;17.490;2023-07-28T08:34:08;99027.96;;;17.79;89.75
77027;BME280;65956;52.986;17.490;2023-07-28T08:36:34;99027.30;;;17.75;90.23
77027;BME280;65956;52.986;17.490;2023-07-28T08:39:00;99029.93;;;17.73;90.29
77027;BME280;65956;52.986;17.490;2023-07-28T08:41:26;99026.97;;;17.77;90.39
77027;BME280;65956;52.986;17.490;2023-07-28T08:43:53;99028.69;;;17.81;90.30
77027;BME280;65956;52.986;17.490;2023-07-28T08:46:20;99029.54;;;17.92;90.02
77027;BME280;65956;52.986;17.490;2023-07-28T08:48:46;99026.45;;;18.09;89.92
77027;BME280;65956;52.986;17.490;2023-07-28T08:51:13;99025.96;;;18.35;89.70
77027;BME280;65956;52.986;17.490;2023-07-28T08:53:39;99027.81;;;18.54;88.82
77027;BME280;65956;52.986;17.490;2023-07-28T08:56:06;99027.98;;;18.65;88.65
77027;BME280;65956;52.986;17.490;2023-07-28T08:58:32;99027.99;;;18.60;88.49
77027;BME280;65956;52.986;17.490;2023-07-28T09:00:59;99026.34;;;18.49;88.57
77027;BME280;65956;52.986;17.490;2023-07-28T09:03:29;99025.73;;;18.41;88.96
77027;BME280;65956;52.986;17.490;2023-07-28T09:05:59;99024.39;;;18.34;89.43
77027;BME280;65956;52.986;17.490;2023-07-28T09:08:27;99028.92;;;18.27;89.79
77027;BME280;65956;52.986;17.490;2023-07-28T09:10:53;99026.00;;;18.16;90.24
77027;BME280;65956;52.986;17.490;2023-07-28T09:13:20;99030.63;;;18.09;90.58
77027;BME280;65956;52.986;17.490;2023-07-28T09:15:46;99036.55;;;18.06;91.07
77027;BME280;65956;52.986;17.490;2023-07-28T09:18:15;99038.14;;;18.07;91.12
77027;BME280;65956;52.986;17.490;2023-07-28T09:20:42;99034.73;;;18.05;91.43
77027;BME280;65956;52.986;17.490;2023-07-28T09:23:10;99035.61;;;18.03;91.30
77027;BME280;65956;52.986;17.490;2023-07-28T09:25:37;99035.50;;;17.97;91.47
77027;BME280;65956;52.986;17.490;2023-07-28T09:28:04;99035.24;;;17.97;91.62
77027;BME280;65956;52.986;17.490;2023-07-28T09:30:49;99036.67;;;18.02;91.50
77027;BME280;65956;52.986;17.490;2023-07-28T09:33:35;99036.40;;;18.06;91.83
77027;BME280;65956;52.986;17.490;2023-07-28T09:36:12;99036.20;;;18.12;92.09
77027;BME280;65956;52.986;17.490;2023-07-28T09:38:41;99037.96;;;18.22;91.73
77027;BME280;65956;52.986;17.490;2023-07-28T09:41:10;99042.40;;;18.31;91.64
77027;BME280;65956;52.986;17.490;2023-07-28T09:43:38;99039.25;;;18.38;91.30
77027;BME280;65956;52.986;17.490;2023-07-28T09:46:05;99039.90;;;18.44;91.63
77027;BME280;65956;52.986;17.490;2023-07-28T09:48:33;99033.77;;;18.47;91.13
77027;BME280;65956;52.986;17.490;2023-07-28T09:51:03;99044.36;;;18.51;90.93
77027;BME280;65956;52.986;17.490;2023-07-28T09:53:33;99039.98;;;18.57;90.54
77027;BME280;65956;52.986;17.490;2023-07-28T09:56:01;99039.64;;;18.68;90.08
77027;BME280;65956;52.986;17.490;2023-07-28T09:58:33;99035.55;;;18.87;89.66
77027;BME280;65956;52.986;17.490;2023-07-28T10:01:03;99035.81;;;19.25;88.94
77027;BME280;65956;52.986;17.490;2023-07-28T10:03:32;99040.72;;;19.42;87.89
77027;BME280;65956;52.986;17.490;2023-07-28T10:05:59;99036.69;;;19.49;86.49
77027;BME280;65956;52.986;17.490;2023-07-28T10:08:25;99032.33;;;19.76;85.89
77027;BME280;65956;52.986;17.490;2023-07-28T10:10:52;99023.58;;;20.14;84.34
77027;BME280;65956;52.986;17.490;2023-07-28T10:13:22;99019.73;;;20.51;84.18
77027;BME280;65956;52.986;17.490;2023-07-28T10:15:49;99016.13;;;20.97;83.36
77027;BME280;65956;52.986;17.490;2023-07-28T10:18:19;99016.14;;;21.34;82.35
77027;BME280;65956;52.986;17.490;2023-07-28T10:20:45;99012.56;;;21.46;79.64
77027;BME280;65956;52.986;17.490;2023-07-28T10:23:17;99013.45;;;21.44;79.04
77027;BME280;65956;52.986;17.490;2023-07-28T10:25:46;99013.29;;;21.46;78.32
77027;BME280;65956;52.986;17.490;2023-07-28T10:28:29;99015.73;;;21.66;78.55
77027;BME280;65956;52.986;17.490;2023-07-28T10:31:01;99013.15;;;22.00;76.61
77027;BME280;65956;52.986;17.490;2023-07-28T10:33:31;99013.15;;;22.29;74.78
77027;BME280;65956;52.986;17.490;2023-07-28T10:35:59;99014.16;;;22.72;74.07
77027;BME280;65956;52.986;17.490;2023-07-28T10:38:30;99019.69;;;22.93;72.29
77027;BME280;65956;52.986;17.490;2023-07-28T10:41:10;99014.36;;;22.73;71.83
77027;BME280;65956;52.986;17.490;2023-07-28T10:43:36;99013.00;;;22.53;73.26
77027;BME280;65956;52.986;17.490;2023-07-28T10:46:05;99018.04;;;22.19;73.53
77027;BME280;65956;52.986;17.490;2023-07-28T10:48:32;99027.02;;;21.79;75.08
77027;BME280;65956;52.986;17.490;2023-07-28T10:50:57;99039.80;;;21.47;76.60
77027;BME280;65956;52.986;17.490;2023-07-28T10:53:23;99052.79;;;21.13;77.66
77027;BME280;65956;52.986;17.490;2023-07-28T10:55:49;99075.52;;;20.55;80.27
77027;BME280;65956;52.986;17.490;2023-07-28T10:58:15;99074.34;;;19.88;81.64
77027;BME280;65956;52.986;17.490;2023-07-28T11:00:41;99074.50;;;19.37;83.46
77027;BME280;65956;52.986;17.490;2023-07-28T11:03:08;99063.85;;;18.94;84.69
77027;BME280;65956;52.986;17.490;2023-07-28T11:05:35;99069.27;;;18.63;85.25
77027;BME280;65956;52.986;17.490;2023-07-28T11:08:02;99079.75;;;18.39;87.01
77027;BME280;65956;52.986;17.490;2023-07-28T11:10:29;99077.87;;;18.23;87.72
77027;BME280;65956;52.986;17.490;2023-07-28T11:12:59;99068.02;;;18.21;88.17
77027;BME280;65956;52.986;17.490;2023-07-28T11:15:26;99075.64;;;18.36;88.19
77027;BME280;65956;52.986;17.490;2023-07-28T11:17:52;99069.23;;;18.81;87.95
77027;BME280;65956;52.986;17.490;2023-07-28T11:20:21;99073.59;;;19.27;87.32
77027;BME280;65956;52.986;17.490;2023-07-28T11:25:20;99077.42;;;19.88;86.63
77027;BME280;65956;52.986;17.490;2023-07-28T11:27:47;99077.63;;;20.01;86.07
77027;BME280;65956;52.986;17.490;2023-07-28T11:30:15;99071.16;;;20.13;85.85
77027;BME280;65956;52.986;17.490;2023-07-28T11:32:44;99080.11;;;20.23;85.31
77027;BME280;65956;52.986;17.490;2023-07-28T11:35:12;99083.85;;;20.24;84.60
77027;BME280;65956;52.986;17.490;2023-07-28T11:37:40;99073.93;;;20.05;84.63
77027;BME280;65956;52.986;17.490;2023-07-28T11:40:08;99073.39;;;19.70;84.97
77027;BME280;65956;52.986;17.490;2023-07-28T11:42:42;99079.16;;;19.49;85.62
77027;BME280;65956;52.986;17.490;2023-07-28T11:45:10;99076.07;;;19.34;86.01
77027;BME280;65956;52.986;17.490;2023-07-28T11:47:38;99088.80;;;19.24;86.77
77027;BME280;65956;52.986;17.490;2023-07-28T11:50:04;99093.26;;;19.19;87.29
77027;BME280;65956;52.986;17.490;2023-07-28T11:52:35;99089.60;;;19.16;87.56
77027;BME280;65956;52.986;17.490;2023-07-28T11:55:05;99093.81;;;19.07;88.06
77027;BME280;65956;52.986;17.490;2023-07-28T11:57:32;99094.96;;;18.97;88.18
77027;BME280;65956;52.986;17.490;2023-07-28T11:59:59;99091.45;;;18.87;87.92
77027;BME280;65956;52.986;17.490;2023-07-28T12:02:31;99093.86;;;18.83;88.41
77027;BME280;65956;52.986;17.490;2023-07-28T12:04:57;99090.66;;;18.84;88.42
77027;BME280;65956;52.986;17.490;2023-07-28T12:07:31;99093.14;;;18.93;87.98
77027;BME280;65956;52.986;17.490;2023-07-28T12:10:05;99090.14;;;19.12;88.06
77027;BME280;65956;52.986;17.490;2023-07-28T12:12:45;99090.63;;;19.80;87.48
77027;BME280;65956;52.986;17.490;2023-07-28T12:20:36;99078.54;;;22.32;80.49
77027;BME280;65956;52.986;17.490;2023-07-28T12:23:02;99085.75;;;23.02;78.59
77027;BME280;65956;52.986;17.490;2023-07-28T12:25:29;99089.45;;;23.42;75.49
77027;BME280;65956;52.986;17.490;2023-07-28T12:27:55;99095.45;;;23.81;73.93
77027;BME280;65956;52.986;17.490;2023-07-28T12:30:21;99094.65;;;23.86;72.81
77027;BME280;65956;52.986;17.490;2023-07-28T12:32:48;99095.30;;;23.78;73.27
77027;BME280;65956;52.986;17.490;2023-07-28T12:35:14;99091.05;;;23.53;72.06
77027;BME280;65956;52.986;17.490;2023-07-28T12:37:40;99086.20;;;23.45;73.17
77027;BME280;65956;52.986;17.490;2023-07-28T12:40:08;99100.83;;;23.06;73.39
77027;BME280;65956;52.986;17.490;2023-07-28T12:42:36;99099.77;;;22.55;74.68
77027;BME280;65956;52.986;17.490;2023-07-28T12:45:02;99093.90;;;22.21;75.60
77027;BME280;65956;52.986;17.490;2023-07-28T12:47:28;99095.34;;;22.67;75.69
77027;BME280;65956;52.986;17.490;2023-07-28T12:49:54;99094.41;;;23.07;72.71
77027;BME280;65956;52.986;17.490;2023-07-28T12:52:21;99109.15;;;22.52;74.40
77027;BME280;65956;52.986;17.490;2023-07-28T12:54:47;99115.63;;;22.00;75.73
77027;BME280;65956;52.986;17.490;2023-07-28T12:57:13;99123.40;;;21.57;77.18
77027;BME280;65956;52.986;17.490;2023-07-28T12:59:39;99127.20;;;21.25;78.66
77027;BME280;65956;52.986;17.490;2023-07-28T13:02:06;99128.07;;;20.95;80.27